createdAt,value
2022-08-18T00:01:17.566Z,80.83
2022-08-18T00:03:56.989Z,80.94
2022-08-18T00:06:34.042Z,81.22
2022-08-18T00:09:08.020Z,81.82
2022-08-18T00:11:46.557Z,81.03
2022-08-18T00:14:21.700Z,81.22
2022-08-18T00:16:54.765Z,81.14
2022-08-18T00:19:46.746Z,81.43
2022-08-18T00:22:17.813Z,81.80
2022-08-18T00:24:49.365Z,81.61
2022-08-18T00:27:26.171Z,81.44
2022-08-18T00:30:00.076Z,80.99
2022-08-18T00:32:33.718Z,81.25
2022-08-18T00:35:08.595Z,81.01
2022-08-18T00:37:39.343Z,81.34
2022-08-18T00:40:11.299Z,81.08
2022-08-18T00:42:45.980Z,81.78
2022-08-18T00:45:18.074Z,81.46
2022-08-18T00:47:47.343Z,81.63
2022-08-18T00:50:20.496Z,81.48
2022-08-18T00:52:56.629Z,81.61
2022-08-18T00:55:29.521Z,82.09
2022-08-18T00:58:07.243Z,81.43
2022-08-18T01:00:38.240Z,81.86
2022-08-18T01:03:13.852Z,81.26
2022-08-18T01:05:48.437Z,81.19
2022-08-18T01:08:21.380Z,81.66
2022-08-18T01:11:02.845Z,81.04
2022-08-18T01:13:34.605Z,81.21
2022-08-18T01:16:25.020Z,81.33
2022-08-18T01:19:11.968Z,82.18
2022-08-18T01:21:53.828Z,81.80
2022-08-18T01:24:42.812Z,81.88
2022-08-18T01:27:18.764Z,82.16
2022-08-18T01:29:50.121Z,81.81
2022-08-18T01:32:21.208Z,81.68
2022-08-18T01:34:52.368Z,81.54
2022-08-18T01:37:24.670Z,81.69
2022-08-18T01:41:21.839Z,81.43
2022-08-18T01:42:45.963Z,81.49
2022-08-18T01:45:17.525Z,81.64
2022-08-18T01:47:48.568Z,81.55
2022-08-18T01:50:18.732Z,81.81
2022-08-18T01:52:50.067Z,81.39
2022-08-18T01:55:20.599Z,81.16
2022-08-18T01:57:50.378Z,80.66
2022-08-18T02:00:20.406Z,80.30
2022-08-18T02:02:58.222Z,80.31
2022-08-18T02:05:37.305Z,80.12
2022-08-18T02:08:08.491Z,80.27
2022-08-18T02:10:39.526Z,80.52
2022-08-18T02:13:09.179Z,80.97
2022-08-18T02:15:38.640Z,80.80
2022-08-18T02:18:41.396Z,81.21
2022-08-18T02:21:10.574Z,81.52
2022-08-18T02:23:40.639Z,82.53
2022-08-18T02:26:20.425Z,81.51
2022-08-18T02:28:49.802Z,81.60
2022-08-18T02:31:21.694Z,81.96
2022-08-18T02:33:52.555Z,82.13
2022-08-18T02:36:25.072Z,81.30
2022-08-18T02:38:59.298Z,82.73
2022-08-18T02:41:31.384Z,81.82
2022-08-18T02:44:00.902Z,81.78
2022-08-18T02:46:31.216Z,81.53
2022-08-18T02:49:01.639Z,81.51
2022-08-18T02:51:31.114Z,81.24
2022-08-18T02:54:00.763Z,80.86
2022-08-18T02:56:41.484Z,82.17
2022-08-18T02:59:14.779Z,82.73
2022-08-18T03:01:46.155Z,82.20
2022-08-18T03:04:17.722Z,82.60
2022-08-18T03:06:47.692Z,83.61
2022-08-18T03:09:19.133Z,84.50
2022-08-18T03:16:53.388Z,83.80
2022-08-18T03:19:24.902Z,83.96
2022-08-18T03:22:03.664Z,84.13
2022-08-18T03:24:33.484Z,84.45
2022-08-18T03:27:06.021Z,84.25
2022-08-18T03:29:35.502Z,84.18
2022-08-18T03:32:08.700Z,83.63
2022-08-18T03:34:38.146Z,83.58
2022-08-18T03:37:07.446Z,83.35
2022-08-18T03:39:37.097Z,83.57
2022-08-18T03:42:06.830Z,83.67
2022-08-18T03:44:37.955Z,82.77
2022-08-18T03:47:12.162Z,82.55
2022-08-18T03:49:41.944Z,83.25
2022-08-18T03:52:11.754Z,83.65
2022-08-18T03:54:41.451Z,83.32
2022-08-18T03:57:11.993Z,83.12
2022-08-18T03:59:43.674Z,83.17
2022-08-18T04:02:15.476Z,83.10
2022-08-18T04:04:44.703Z,83.49
2022-08-18T04:07:17.260Z,83.26
2022-08-18T04:09:47.122Z,82.19
2022-08-18T04:12:18.245Z,83.23
2022-08-18T04:14:49.549Z,82.29
2022-08-18T04:17:25.035Z,82.31
2022-08-18T04:19:55.267Z,82.24
2022-08-18T04:22:26.430Z,82.92
2022-08-18T04:24:58.132Z,82.07
2022-08-18T04:27:28.432Z,81.60
2022-08-18T04:29:58.031Z,82.10
2022-08-18T04:32:31.566Z,81.50
2022-08-18T04:35:02.616Z,81.97
2022-08-18T04:37:33.247Z,80.82
2022-08-18T04:40:10.458Z,81.07
2022-08-18T04:42:43.247Z,80.04
2022-08-18T04:45:13.233Z,79.63
2022-08-18T04:47:43.933Z,80.01
2022-08-18T04:50:14.923Z,78.99
2022-08-18T04:53:02.194Z,77.99
2022-08-18T04:55:31.699Z,78.27
2022-08-18T04:58:00.835Z,78.20
2022-08-18T05:00:30.028Z,77.63
2022-08-18T05:03:00.914Z,77.93
2022-08-18T05:05:30.433Z,79.17
2022-08-18T05:07:59.723Z,78.01
2022-08-18T05:10:29.241Z,78.47
2022-08-18T05:12:58.742Z,77.70
2022-08-18T05:15:27.808Z,78.06
2022-08-18T05:17:57.648Z,77.66
2022-08-18T05:20:29.200Z,78.01
2022-08-18T05:22:59.268Z,77.49
2022-08-18T05:25:29.851Z,76.19
2022-08-18T05:27:59.189Z,74.99
2022-08-18T05:30:28.389Z,75.73
2022-08-18T05:32:59.275Z,76.36
2022-08-18T05:35:37.676Z,76.72
2022-08-18T05:38:23.488Z,75.64
2022-08-18T05:41:06.255Z,76.00
2022-08-18T05:43:51.324Z,75.29
2022-08-18T05:46:27.567Z,73.88
2022-08-18T05:48:56.869Z,74.08
2022-08-18T05:51:32.686Z,74.07
2022-08-18T05:54:22.189Z,71.36
2022-08-18T05:56:55.479Z,71.36
2022-08-18T05:59:28.725Z,72.03
2022-08-18T06:02:05.625Z,73.23
2022-08-18T06:04:44.088Z,72.45
2022-08-18T06:07:19.694Z,74.33
2022-08-18T06:09:52.057Z,73.18
2022-08-18T06:12:27.307Z,71.98
2022-08-18T06:15:08.458Z,72.09
2022-08-18T06:17:51.499Z,72.65
2022-08-18T06:20:27.905Z,71.47
2022-08-18T06:23:10.108Z,69.63
2022-08-18T06:25:56.394Z,68.90
2022-08-18T06:28:28.936Z,68.72
2022-08-18T06:31:04.081Z,67.73
2022-08-18T06:33:48.255Z,67.70
2022-08-18T06:36:28.607Z,66.64
2022-08-18T06:39:13.308Z,66.35
2022-08-18T06:41:48.763Z,65.55
2022-08-18T06:44:29.308Z,66.95
2022-08-18T06:47:04.760Z,67.11
2022-08-18T06:49:43.621Z,67.73
2022-08-18T06:52:30.229Z,67.56
2022-08-18T06:55:03.452Z,65.23
2022-08-18T06:57:35.124Z,65.96
2022-08-18T07:00:13.554Z,65.00
2022-08-18T07:02:51.930Z,64.38
2022-08-18T07:05:24.379Z,63.17
2022-08-18T07:08:18.872Z,60.25
2022-08-18T07:10:52.989Z,59.31
2022-08-18T07:13:28.294Z,59.69
2022-08-18T07:16:16.055Z,59.53
2022-08-18T07:18:47.989Z,60.56
2022-08-18T07:21:28.688Z,59.94
2022-08-18T07:24:23.907Z,57.74
2022-08-18T07:27:03.972Z,58.80
2022-08-18T07:29:36.046Z,57.52
2022-08-18T07:32:21.018Z,57.61
2022-08-18T07:34:55.253Z,57.00
2022-08-18T07:37:30.059Z,57.60
2022-08-18T07:40:06.580Z,60.58
2022-08-18T07:43:00.657Z,58.03
2022-08-18T07:45:35.144Z,57.64
2022-08-18T07:48:34.676Z,58.52
2022-08-18T07:51:13.939Z,58.08
2022-08-18T07:53:59.773Z,57.56
2022-08-18T07:56:43.797Z,54.89
2022-08-18T07:59:25.006Z,55.11
2022-08-18T08:02:05.577Z,55.17
2022-08-18T08:04:44.876Z,55.30
2022-08-18T08:07:26.448Z,54.90
2022-08-18T08:10:12.539Z,55.13
2022-08-18T08:12:47.188Z,55.44
2022-08-18T08:15:28.270Z,54.61
2022-08-18T08:18:06.346Z,52.72
2022-08-18T08:20:40.855Z,52.98
2022-08-18T08:23:19.187Z,52.96
2022-08-18T08:26:00.716Z,54.71
2022-08-18T08:28:41.842Z,51.78
2022-08-18T08:31:36.585Z,54.02
2022-08-18T08:34:12.164Z,52.21
2022-08-18T08:36:45.928Z,51.11
2022-08-18T08:39:21.055Z,51.43
2022-08-18T08:41:57.923Z,50.64
2022-08-18T08:44:59.288Z,53.22
2022-08-18T08:47:36.878Z,53.35
2022-08-18T08:50:13.515Z,51.27
2022-08-18T08:52:47.638Z,49.55
2022-08-18T08:55:22.498Z,50.45
2022-08-18T08:57:57.365Z,49.40
2022-08-18T09:00:27.747Z,48.62
2022-08-18T09:03:12.529Z,48.26
2022-08-18T09:05:47.312Z,49.39
2022-08-18T09:08:42.820Z,47.99
2022-08-18T09:11:27.997Z,49.34
2022-08-18T09:14:45.989Z,48.15
2022-08-18T09:17:42.526Z,46.98
2022-08-18T09:20:48.929Z,45.71
2022-08-18T09:23:22.379Z,47.43
2022-08-18T09:25:54.943Z,46.32
2022-08-18T09:28:48.338Z,44.44
2022-08-18T09:31:20.486Z,45.46
2022-08-18T09:34:10.698Z,46.99
2022-08-18T09:37:03.755Z,44.49
2022-08-18T09:39:56.724Z,43.33
2022-08-18T09:45:57.612Z,43.94
2022-08-18T09:48:30.644Z,45.15
2022-08-18T09:51:35.526Z,41.33
2022-08-18T09:54:21.174Z,42.68
2022-08-18T09:57:24.429Z,41.83
2022-08-18T10:00:00.368Z,41.40
2022-08-18T10:03:12.868Z,40.53
2022-08-18T10:05:57.643Z,41.28
2022-08-18T10:09:02.108Z,39.81
2022-08-18T10:12:16.191Z,39.39
2022-08-18T10:15:11.119Z,39.52
2022-08-18T10:18:00.948Z,39.60
2022-08-18T10:20:41.311Z,40.21
2022-08-18T10:23:12.432Z,39.54
2022-08-18T10:25:43.648Z,39.21
2022-08-18T10:28:57.240Z,39.59
2022-08-18T10:31:27.571Z,38.77
2022-08-18T10:34:15.942Z,37.09
2022-08-18T10:36:59.032Z,33.67
2022-08-18T10:39:45.419Z,35.03
2022-08-18T10:42:21.537Z,34.96
2022-08-18T10:45:06.595Z,32.85
2022-08-18T10:47:39.272Z,28.64
2022-08-18T10:50:20.921Z,29.62
2022-08-18T10:59:03.134Z,26.27
2022-08-18T11:01:53.789Z,25.87
2022-08-18T11:04:33.215Z,22.78
2022-08-18T11:07:08.505Z,21.69
2022-08-18T11:09:41.787Z,24.41
2022-08-18T11:12:14.900Z,23.79
2022-08-18T11:15:01.361Z,24.81
2022-08-18T11:18:05.712Z,21.37
2022-08-18T11:20:42.998Z,23.07
2022-08-18T11:23:17.804Z,22.26
2022-08-18T11:25:48.410Z,23.28
2022-08-18T11:28:21.111Z,23.85
2022-08-18T11:30:55.454Z,20.89
2022-08-18T11:33:26.127Z,23.88
2022-08-18T11:35:59.437Z,24.64
2022-08-18T11:38:33.068Z,22.54
2022-08-18T11:41:17.414Z,25.97
2022-08-18T11:43:50.392Z,24.84
2022-08-18T11:46:30.440Z,26.01
2022-08-18T11:52:02.197Z,28.44
2022-08-18T11:54:50.488Z,24.20
2022-08-18T11:57:47.006Z,22.63
2022-08-18T12:00:43.965Z,21.05
2022-08-18T12:03:21.630Z,21.83
2022-08-18T12:05:56.447Z,20.83
2022-08-18T12:08:57.233Z,21.29
2022-08-18T12:11:29.432Z,21.98
2022-08-18T12:16:57.024Z,21.60
2022-08-18T12:19:28.069Z,21.44
2022-08-18T12:22:01.644Z,21.31
2022-08-18T12:24:36.567Z,21.67
2022-08-18T12:27:20.357Z,21.10
2022-08-18T12:29:52.942Z,22.50
2022-08-18T12:32:46.531Z,23.06
2022-08-18T12:35:14.091Z,20.88
2022-08-18T12:38:04.945Z,19.77
2022-08-18T12:40:36.536Z,23.38
2022-08-18T12:43:06.026Z,24.09
2022-08-18T12:45:37.523Z,22.34
2022-08-18T12:48:08.722Z,23.55
2022-08-18T12:50:49.957Z,20.91
2022-08-18T12:53:38.269Z,19.84
2022-08-18T12:56:24.835Z,18.92
2022-08-18T12:58:55.500Z,21.22
2022-08-18T13:01:26.584Z,20.79
2022-08-18T13:04:11.673Z,19.13
2022-08-18T13:06:54.091Z,21.98
2022-08-18T13:09:35.325Z,21.06
2022-08-18T13:12:22.600Z,23.75
2022-08-18T13:14:55.285Z,24.91
2022-08-18T13:17:30.457Z,26.10
2022-08-18T13:20:06.776Z,28.43
2022-08-18T13:22:41.042Z,30.07
2022-08-18T13:25:13.551Z,29.73
2022-08-18T13:28:02.647Z,27.99
2022-08-18T13:30:33.140Z,26.88
2022-08-18T13:33:34.922Z,28.24
2022-08-18T13:35:56.258Z,28.85
2022-08-18T13:38:27.714Z,28.08
2022-08-18T13:41:01.700Z,28.13
2022-08-18T13:43:34.321Z,29.03
2022-08-18T13:46:04.346Z,29.30
2022-08-18T13:48:35.205Z,31.23
2022-08-18T13:51:06.823Z,30.50
2022-08-18T13:53:51.163Z,30.26
2022-08-18T13:56:31.333Z,29.27
2022-08-18T13:59:01.173Z,31.58
2022-08-18T14:01:51.725Z,32.78
2022-08-18T14:04:23.157Z,31.48
2022-08-18T14:06:58.816Z,32.66
2022-08-18T14:09:37.614Z,33.99
2022-08-18T14:12:23.031Z,34.49
2022-08-18T14:14:55.013Z,36.11
2022-08-18T14:17:26.820Z,36.06
2022-08-18T14:20:15.373Z,34.42
2022-08-18T14:23:11.157Z,35.52
2022-08-18T14:25:57.823Z,35.36
2022-08-18T14:33:34.299Z,35.24
2022-08-18T14:36:18.334Z,38.84
2022-08-18T14:44:15.382Z,40.57
2022-08-18T14:46:54.452Z,39.55
2022-08-18T14:49:28.360Z,39.56
2022-08-18T14:52:00.522Z,40.78
2022-08-18T14:54:31.231Z,40.46
2022-08-18T14:57:01.767Z,41.27
2022-08-18T15:04:52.930Z,41.12
2022-08-18T15:12:39.916Z,41.59
2022-08-18T15:15:17.913Z,40.60
2022-08-18T15:17:50.293Z,42.84
2022-08-18T15:20:28.965Z,41.97
2022-08-18T15:23:24.731Z,42.79
2022-08-18T15:25:54.696Z,43.84
2022-08-18T15:28:27.700Z,44.61
2022-08-18T15:36:16.136Z,45.52
2022-08-18T15:38:45.862Z,44.75
2022-08-18T15:41:30.789Z,45.03
2022-08-18T15:44:02.718Z,44.27
2022-08-18T15:46:35.362Z,44.40
2022-08-18T15:49:11.346Z,43.15
2022-08-18T15:51:45.706Z,41.50
2022-08-18T15:54:15.235Z,41.89
2022-08-18T15:56:44.804Z,44.61
2022-08-18T15:59:34.258Z,45.52
2022-08-18T16:02:11.641Z,45.58
2022-08-18T16:04:44.899Z,46.37
2022-08-18T16:07:17.910Z,47.13
2022-08-18T16:09:54.751Z,47.71
2022-08-18T16:12:23.947Z,48.32
2022-08-18T16:14:53.210Z,48.52
2022-08-18T16:17:29.880Z,50.26
2022-08-18T16:20:01.621Z,51.22
2022-08-18T16:22:32.991Z,51.40
2022-08-18T16:25:09.031Z,51.59
2022-08-18T16:39:50.760Z,54.24
2022-08-18T16:42:20.343Z,54.76
2022-08-18T16:44:50.142Z,55.14
2022-08-18T16:47:19.939Z,54.95
2022-08-18T16:49:51.189Z,54.47
2022-08-18T16:52:21.165Z,54.83
2022-08-18T16:54:57.738Z,54.11
2022-08-18T16:57:53.672Z,55.51
2022-08-18T17:00:42.989Z,54.92
2022-08-18T17:03:31.024Z,55.14
2022-08-18T17:06:05.359Z,55.07
2022-08-18T17:08:35.464Z,55.35
2022-08-18T17:11:09.583Z,55.85
2022-08-18T17:13:40.231Z,55.93
2022-08-18T17:16:10.900Z,56.41
2022-08-18T17:18:42.074Z,57.34
2022-08-18T17:21:14.216Z,57.11
2022-08-18T17:28:39.639Z,56.89
2022-08-18T17:31:22.620Z,56.82
2022-08-18T17:33:52.908Z,58.07
2022-08-18T17:36:28.119Z,57.89
2022-08-18T17:38:59.054Z,58.61
2022-08-18T17:46:53.412Z,59.97
2022-08-18T17:50:04.174Z,60.55
2022-08-18T17:52:45.842Z,60.23
2022-08-18T17:55:26.815Z,59.81
2022-08-18T17:58:02.772Z,60.05
2022-08-18T18:00:34.634Z,60.77
2022-08-18T18:03:06.008Z,62.07
2022-08-18T18:05:41.964Z,60.29
2022-08-18T18:08:11.631Z,61.98
2022-08-18T18:11:02.258Z,62.34
2022-08-18T18:13:34.236Z,62.09
2022-08-18T18:16:20.692Z,62.81
2022-08-18T18:19:01.126Z,62.42
2022-08-18T18:26:48.144Z,64.00
2022-08-18T18:29:21.609Z,64.06
2022-08-18T18:32:03.309Z,64.64
2022-08-18T18:34:39.255Z,63.62
2022-08-18T18:37:26.260Z,64.11
2022-08-18T18:39:58.750Z,64.39
2022-08-18T18:42:32.099Z,64.85
2022-08-18T18:45:03.877Z,65.43
2022-08-18T18:47:50.789Z,65.47
2022-08-18T18:50:29.362Z,64.65
2022-08-18T18:59:19.704Z,64.61
2022-08-18T19:02:00.689Z,65.09
2022-08-18T19:04:38.675Z,65.75
2022-08-18T19:07:21.009Z,66.29
2022-08-18T19:09:58.195Z,65.92
2022-08-18T19:12:32.066Z,66.23
2022-08-18T19:15:16.860Z,66.50
2022-08-18T19:17:52.615Z,67.28
2022-08-18T19:20:28.314Z,67.05
2022-08-18T19:23:06.473Z,66.82
2022-08-18T19:25:39.906Z,66.64
2022-08-18T19:28:18.154Z,66.74
2022-08-18T19:36:21.054Z,67.97
2022-08-18T19:39:12.400Z,69.27
2022-08-18T19:41:50.068Z,69.82
2022-08-18T19:49:26.294Z,69.86
2022-08-18T19:52:02.727Z,71.34
2022-08-18T19:54:54.559Z,70.78
2022-08-18T19:57:44.799Z,71.19
2022-08-18T20:00:29.013Z,71.47
2022-08-18T20:03:28.049Z,70.65
2022-08-18T20:06:32.102Z,71.33
2022-08-18T20:09:22.652Z,70.44
2022-08-18T20:12:03.282Z,71.25
2022-08-18T20:14:35.725Z,71.33
2022-08-18T20:17:16.866Z,71.49
2022-08-18T20:20:06.400Z,70.64
2022-08-18T20:22:42.459Z,71.10
2022-08-18T20:41:44.768Z,72.45
2022-08-18T20:44:36.595Z,72.75
2022-08-18T20:47:36.850Z,72.20
2022-08-18T20:50:39.550Z,73.08
2022-08-18T20:53:21.633Z,73.29
2022-08-18T20:56:00.776Z,73.77
2022-08-18T20:58:57.300Z,73.95
2022-08-18T21:01:29.299Z,74.78
2022-08-18T21:03:59.485Z,75.07
2022-08-18T21:06:34.033Z,74.64
2022-08-18T21:09:03.393Z,74.52
2022-08-18T21:11:41.470Z,74.18
2022-08-18T21:14:15.498Z,74.28
2022-08-18T21:16:46.818Z,74.61
2022-08-18T21:19:23.711Z,74.78
2022-08-18T21:21:56.375Z,74.48
2022-08-18T21:24:32.397Z,74.45
2022-08-18T21:31:44.012Z,74.69
2022-08-18T21:34:18.555Z,75.21
2022-08-18T21:36:53.611Z,75.76
2022-08-18T21:39:24.946Z,76.29
2022-08-18T21:41:56.288Z,76.15
2022-08-18T21:44:36.311Z,76.37
2022-08-18T21:47:15.266Z,77.55
2022-08-18T21:50:00.207Z,76.66
2022-08-18T21:52:31.892Z,76.70
2022-08-18T21:55:08.507Z,76.25
2022-08-18T21:58:00.922Z,76.49
2022-08-18T22:00:32.950Z,76.52
2022-08-18T22:08:00.465Z,76.85
2022-08-18T22:15:08.233Z,76.76
2022-08-18T22:17:50.711Z,78.02
2022-08-18T22:20:51.717Z,77.51
2022-08-18T22:24:09.310Z,77.54
2022-08-18T22:26:40.116Z,76.82
2022-08-18T22:29:17.971Z,76.60
2022-08-18T22:31:49.895Z,77.77
2022-08-18T22:39:19.698Z,76.91
2022-08-18T22:46:24.022Z,77.62
2022-08-18T22:48:54.412Z,77.28
2022-08-18T22:51:25.849Z,77.76
2022-08-18T22:53:55.898Z,77.85
2022-08-18T22:56:34.263Z,77.46
2022-08-18T22:59:15.848Z,77.37
2022-08-18T23:01:47.413Z,77.27
2022-08-18T23:04:18.700Z,77.59
2022-08-18T23:12:10.662Z,76.64
2022-08-18T23:14:40.019Z,76.86
2022-08-18T23:17:09.565Z,76.89
2022-08-18T23:19:40.779Z,77.10
2022-08-18T23:22:11.715Z,76.53
2022-08-18T23:24:41.769Z,76.69
2022-08-18T23:27:13.061Z,77.00
2022-08-18T23:29:42.824Z,76.72
2022-08-18T23:32:13.350Z,76.57
2022-08-18T23:34:43.033Z,77.01
2022-08-18T23:37:12.264Z,76.91
2022-08-18T23:39:44.788Z,77.19
2022-08-18T23:42:16.509Z,76.98
2022-08-18T23:44:47.069Z,77.71
2022-08-18T23:47:21.188Z,78.10
2022-08-18T23:55:06.623Z,77.77
2022-08-18T23:57:37.711Z,77.03
